Search for airport 
image banner adimage banner adimage banner ad
image banner ad

9CA2 - Pioneers Memorial Hospital

Located in Brawley, United States

ICAO - 9CA2, IATA -

Data provided by Airmate  

General information

Coordinates: N32°57'30" W115°33'11"
Elevation is -99 feet MSL.
Magnetic variation is 13° East
View others Airports in California

Operational data

Special qualification required
Current time UTC:
Current local time:
Weather at : KIPL - Imperial County ( 14 km )
METAR: KIPL 141153Z AUTO 00000KT 10SM CLR 22/14 A2975 RMK AO2 SLP075 T02220144 10317 20206 51012 $
TAF: KIPL 141142Z 1412/1512 VRB04KT P6SM SKC FM141700 14006KT P6SM FEW180 FEW250 FM150400 25006KT P6SM FEW180 SCT250 FM150900 14005KT P6SM SCT250
View NOTAMs / SUP AIP / TFR affecting this airport [VIEW]
Communications frequencies: [VIEW]

Runways:

Airport contact information

Address: Brawley United States

Satellite view of 9CA2